Time;durP1;ratioP1;P1;durP2;ratioP2;P2;SDS_P1;SDS_P2;PMS_P1;PMS_P2;Temp;Humidity;BMP_temperature;BMP_pressure;BME280_temperature;BME280_humidity;BME280_pressure;Samples;Min_cycle;Max_cycle;Signal;HPM_P1;HPM_P2
2022/09/13 00:00:00;;;;;;;2.22;1.77;;;;;;;19.99;38.00;99948.69;10115857;29;20701;-80
2022/09/13 00:05:22;;;;;;;3.78;1.80;;;;;;;20.77;37.06;99952.22;10158021;29;20212;-80
2022/09/13 00:10:45;;;;;;;3.20;1.77;;;;;;;21.04;36.38;99955.41;10138006;29;20204;-80
2022/09/13 00:16:11;;;;;;;2.60;2.05;;;;;;;19.97;37.97;99951.13;10142039;29;20229;-80
2022/09/13 00:21:33;;;;;;;2.35;1.70;;;;;;;20.69;36.94;99921.97;10177969;29;20216;-80
2022/09/13 00:26:55;;;;;;;1.70;1.60;;;;;;;19.85;38.35;99911.50;10164659;29;20254;-81
2022/09/13 00:32:17;;;;;;;2.10;1.70;;;;;;;20.19;38.42;99914.75;10126145;29;20630;-80
2022/09/13 00:37:39;;;;;;;3.38;2.00;;;;;;;20.24;37.85;99905.75;10142536;29;20190;-80
2022/09/13 00:43:01;;;;;;;5.55;2.22;;;;;;;20.03;38.20;99900.88;10089309;29;20280;-80
2022/09/13 00:48:24;;;;;;;2.45;2.10;;;;;;;19.89;38.11;99900.88;10100677;29;20254;-80
2022/09/13 00:53:49;;;;;;;2.17;1.67;;;;;;;20.00;38.56;99899.66;10104460;29;20201;-79
2022/09/13 00:59:14;;;;;;;2.28;1.52;;;;;;;20.31;37.50;99889.38;10127792;29;20273;-81
2022/09/13 01:04:37;;;;;;;1.27;1.20;;;;;;;20.28;38.05;99895.94;10111520;29;20519;-80
2022/09/13 01:10:02;;;;;;;2.45;1.73;;;;;;;20.88;36.72;99886.31;10156101;29;20200;-80
2022/09/13 01:15:24;;;;;;;2.22;1.38;;;;;;;20.58;37.40;99888.88;10162845;29;20276;-80
2022/09/13 01:21:11;;;;;;;2.10;1.38;;;;;;;20.48;37.62;99881.16;10172595;29;20617;-80
2022/09/13 01:26:52;;;;;;;2.15;1.60;;;;;;;20.75;36.37;99867.94;10146108;29;20197;-80
2022/09/13 01:32:23;;;;;;;2.45;1.23;;;;;;;20.83;36.21;99869.56;10139126;29;20602;-80
2022/09/13 01:38:01;;;;;;;2.50;1.75;;;;;;;21.04;36.02;99875.19;10115356;29;20234;-80
2022/09/13 01:43:56;;;;;;;2.25;1.15;;;;;;;20.41;37.56;99865.66;10139403;29;20201;-80
2022/09/13 01:49:24;;;;;;;2.15;1.58;;;;;;;20.51;37.25;99869.69;10100996;29;20245;-80
2022/09/13 01:54:54;;;;;;;1.83;1.40;;;;;;;20.36;37.84;99868.09;10145951;29;20256;-82
2022/09/13 02:00:17;;;;;;;2.95;1.63;;;;;;;20.53;37.13;99869.28;10135653;29;20232;-80
2022/09/13 02:05:40;;;;;;;2.63;1.45;;;;;;;19.86;38.31;99873.09;10121699;29;20255;-80
2022/09/13 02:11:09;;;;;;;2.45;1.70;;;;;;;20.78;36.17;99867.13;10124084;29;20201;-81
2022/09/13 02:16:35;;;;;;;3.78;1.30;;;;;;;20.74;37.19;99866.31;10125304;29;20229;-80
2022/09/13 02:21:59;;;;;;;1.42;1.30;;;;;;;20.11;37.71;99865.28;10124762;29;20220;-81
2022/09/13 02:27:26;;;;;;;1.45;1.20;;;;;;;21.13;35.82;99864.06;10125322;29;20221;-80
2022/09/13 02:33:03;;;;;;;2.58;1.38;;;;;;;21.02;36.31;99871.91;10143949;29;20259;-80
2022/09/13 02:38:30;;;;;;;5.63;1.40;;;;;;;21.12;35.69;99865.28;10174012;29;20284;-80
2022/09/13 02:44:21;;;;;;;1.98;1.38;;;;;;;20.92;36.57;99866.25;10176846;29;20192;-80
2022/09/13 02:50:01;;;;;;;1.75;1.23;;;;;;;20.73;36.54;99861.81;10112951;29;20205;-80
2022/09/13 02:55:29;;;;;;;2.70;1.30;;;;;;;20.76;36.71;99855.25;10147961;29;20208;-80
2022/09/13 03:00:51;;;;;;;2.60;1.35;;;;;;;20.08;37.86;99857.53;10165805;29;20502;-80
2022/09/13 03:06:27;;;;;;;1.50;1.40;;;;;;;20.38;37.11;99854.19;10111310;29;20205;-81
2022/09/13 03:12:04;;;;;;;2.35;1.20;;;;;;;19.35;39.49;99863.69;10145593;29;20226;-81
2022/09/13 03:17:33;;;;;;;1.53;1.20;;;;;;;19.82;38.64;99866.56;10176845;29;20653;-80
2022/09/13 03:23:19;;;;;;;2.00;1.23;;;;;;;21.01;36.77;99853.09;10139721;29;20260;-80
2022/09/13 03:28:58;;;;;;;0.88;0.70;;;;;;;20.05;37.72;99864.06;10134918;29;20225;-81
2022/09/13 03:34:23;;;;;;;1.58;1.27;;;;;;;20.71;36.91;99852.81;10132622;29;20616;-82
2022/09/13 03:39:51;;;;;;;1.58;1.13;;;;;;;20.70;37.53;99874.09;10139893;29;20622;-81
2022/09/13 03:45:16;;;;;;;1.88;1.20;;;;;;;20.33;38.75;99869.75;10144647;29;20201;-81
2022/09/13 03:50:39;;;;;;;1.65;1.17;;;;;;;20.47;38.34;99868.06;10169037;29;20185;-81
2022/09/13 03:56:11;;;;;;;2.15;1.10;;;;;;;21.02;37.91;99860.47;10149335;29;20668;-80
2022/09/13 04:01:33;;;;;;;2.10;1.50;;;;;;;21.23;38.16;99858.66;10173043;29;20209;-81
2022/09/13 04:06:55;;;;;;;2.13;1.70;;;;;;;20.29;39.68;99857.50;10179552;29;20230;-80
2022/09/13 04:12:17;;;;;;;2.22;1.20;;;;;;;20.06;40.15;99857.13;10135392;29;20506;-80
2022/09/13 04:17:39;;;;;;;2.28;2.08;;;;;;;20.52;38.96;99850.47;10152246;29;20232;-80
2022/09/13 04:23:02;;;;;;;2.03;1.25;;;;;;;20.20;39.65;99828.50;10123596;29;20696;-79
2022/09/13 04:28:27;;;;;;;1.25;1.13;;;;;;;19.95;39.46;99836.31;10134155;29;20225;-83
2022/09/13 04:33:50;;;;;;;1.90;1.15;;;;;;;20.60;38.39;99843.47;10144649;29;20208;-83
2022/09/13 04:39:15;;;;;;;2.55;1.42;;;;;;;20.38;39.05;99837.84;10175552;29;20622;-79
2022/09/13 04:44:37;;;;;;;2.15;1.60;;;;;;;20.66;38.32;99853.28;10160062;29;20685;-80
2022/09/13 04:50:00;;;;;;;5.85;1.75;;;;;;;20.31;38.99;99848.47;10175155;29;20196;-79
2022/09/13 04:55:24;;;;;;;2.65;1.80;;;;;;;20.91;38.31;99848.25;10177473;29;20244;-85
2022/09/13 05:00:47;;;;;;;3.33;1.60;;;;;;;20.58;39.39;99857.38;10150136;29;20248;-80
2022/09/13 05:06:11;;;;;;;2.28;1.63;;;;;;;20.04;40.24;99860.38;10127280;29;20189;-80
2022/09/13 05:11:33;;;;;;;3.03;1.95;;;;;;;20.66;39.14;99841.81;10115132;29;20197;-80
2022/09/13 05:16:55;;;;;;;2.17;1.83;;;;;;;20.39;39.58;99844.38;10139958;29;20718;-79
2022/09/13 05:22:17;;;;;;;2.92;1.52;;;;;;;20.56;38.79;99848.41;10140594;29;20268;-79
2022/09/13 05:27:40;;;;;;;7.28;3.17;;;;;;;21.17;38.30;99844.00;10141479;29;20216;-80
2022/09/13 05:33:03;;;;;;;3.53;1.63;;;;;;;20.07;40.01;99848.13;10134654;29;20249;-79
2022/09/13 05:38:25;;;;;;;2.90;1.60;;;;;;;20.48;39.11;99846.78;10121625;29;20229;-80
2022/09/13 05:43:47;;;;;;;3.40;1.80;;;;;;;19.95;40.62;99859.19;10132867;29;20209;-80
2022/09/13 05:49:11;;;;;;;4.18;1.95;;;;;;;20.08;40.15;99866.09;10124329;29;20202;-80
2022/09/13 05:54:33;;;;;;;2.63;1.85;;;;;;;20.63;39.41;99865.53;10139048;29;20205;-80
2022/09/13 05:59:55;;;;;;;4.53;2.00;;;;;;;20.60;39.50;99870.06;10139512;29;20213;-80
2022/09/13 06:05:17;;;;;;;3.17;2.03;;;;;;;20.63;38.77;99874.13;10116843;29;20674;-80
2022/09/13 06:10:39;;;;;;;2.95;1.75;;;;;;;20.26;39.57;99875.50;10135832;29;20599;-79
2022/09/13 06:16:03;;;;;;;2.15;1.52;;;;;;;21.08;38.54;99873.09;10115255;29;20224;-80
2022/09/13 06:21:25;;;;;;;1.92;1.40;;;;;;;21.56;37.64;99869.50;10125188;29;20221;-80
2022/09/13 06:26:47;;;;;;;1.92;1.70;;;;;;;20.46;39.41;99867.25;10102433;29;20610;-80
2022/09/13 06:32:10;;;;;;;2.83;1.48;;;;;;;20.59;39.25;99877.00;10121505;29;20201;-80
2022/09/13 06:37:32;;;;;;;3.15;1.50;;;;;;;20.59;39.83;99877.00;10110992;29;20268;-80
2022/09/13 06:42:54;;;;;;;5.53;2.15;;;;;;;21.00;38.46;99874.38;10109412;29;20232;-80
2022/09/13 06:48:17;;;;;;;2.08;1.30;;;;;;;20.13;40.40;99871.41;10143738;29;20256;-80
2022/09/13 06:53:40;;;;;;;2.20;1.60;;;;;;;20.35;40.01;99878.75;10140279;29;20205;-80
2022/09/13 06:59:05;;;;;;;2.55;1.75;;;;;;;20.30;40.03;99887.75;10110624;29;20678;-79
2022/09/13 07:04:30;;;;;;;2.05;1.55;;;;;;;20.50;39.53;99879.50;10129192;29;20205;-80
2022/09/13 07:09:54;;;;;;;1.95;1.73;;;;;;;20.77;39.41;99894.13;10140837;29;20253;-80
2022/09/13 07:15:16;;;;;;;3.92;2.30;;;;;;;21.11;38.73;99897.22;10114506;29;20296;-81
2022/09/13 07:20:38;;;;;;;2.60;1.83;;;;;;;21.35;38.97;99881.91;10144588;29;20252;-80
2022/09/13 07:26:01;;;;;;;3.53;1.88;;;;;;;22.15;37.19;99892.34;10161844;29;20252;-81
2022/09/13 07:31:28;;;;;;;4.28;1.88;;;;;;;21.27;38.79;99883.22;10129952;29;20197;-80
2022/09/13 07:36:51;;;;;;;3.20;1.77;;;;;;;21.04;39.28;99880.91;10143027;29;20237;-80
2022/09/13 07:42:13;;;;;;;2.67;1.65;;;;;;;21.85;37.75;99885.25;10129291;29;20252;-80
2022/09/13 07:47:35;;;;;;;3.00;1.52;;;;;;;21.72;37.65;99895.59;10127369;29;20249;-80
2022/09/13 07:52:57;;;;;;;2.50;1.70;;;;;;;22.40;36.57;99898.63;10142184;29;20225;-80
2022/09/13 07:58:19;;;;;;;1.85;1.48;;;;;;;22.80;36.83;99899.00;10112556;29;20670;-80
2022/09/13 08:03:42;;;;;;;1.83;1.27;;;;;;;22.50;36.18;99899.75;10143949;29;20216;-80
2022/09/13 08:09:05;;;;;;;2.78;1.95;;;;;;;22.71;36.53;99910.19;10140966;29;20213;-80
2022/09/13 08:14:27;;;;;;;3.58;1.60;;;;;;;22.75;35.97;99916.72;10126874;29;20239;-81
2022/09/13 08:19:49;;;;;;;5.20;1.67;;;;;;;22.35;37.14;99924.94;10154539;29;20694;-81
2022/09/13 08:25:11;;;;;;;2.60;1.92;;;;;;;21.79;38.02;99927.09;10126627;29;20217;-80
2022/09/13 08:30:36;;;;;;;4.47;2.03;;;;;;;23.11;36.51;99923.66;10118247;29;20225;-80
2022/09/13 08:35:58;;;;;;;5.43;1.88;;;;;;;22.37;37.68;99928.22;10141005;29;20491;-80
2022/09/13 08:41:30;;;;;;;4.88;2.17;;;;;;;21.71;38.43;99925.53;10127579;29;20277;-80
2022/09/13 08:46:58;;;;;;;4.10;2.38;;;;;;;21.83;38.18;99916.41;10140583;29;20197;-80
2022/09/13 08:52:29;;;;;;;3.65;2.20;;;;;;;22.13;37.52;99921.47;10160866;29;20652;-80
2022/09/13 08:57:58;;;;;;;6.13;2.50;;;;;;;22.63;36.36;99911.53;10137977;29;20641;-81
2022/09/13 09:03:34;;;;;;;6.45;2.55;;;;;;;23.35;36.88;99900.72;10126632;29;20221;-81
2022/09/13 09:09:17;;;;;;;3.33;2.50;;;;;;;21.55;38.84;99910.09;10123544;29;20261;-80
2022/09/13 09:14:46;;;;;;;4.45;3.08;;;;;;;22.22;38.26;99909.50;10107856;29;20232;-80
2022/09/13 09:20:21;;;;;;;5.47;2.80;;;;;;;22.84;37.32;99894.03;10139331;29;20217;-80
2022/09/13 09:25:43;;;;;;;8.65;3.97;;;;;;;21.64;38.85;99905.50;10136705;29;20513;-81
2022/09/13 09:31:18;;;;;;;5.18;3.67;;;;;;;22.98;36.25;99898.75;10125156;29;20261;-80
2022/09/13 09:36:48;;;;;;;7.38;3.63;;;;;;;23.84;34.73;99899.94;10124311;29;20253;-80
2022/09/13 09:42:13;;;;;;;7.55;4.30;;;;;;;24.37;33.90;99892.41;10138102;29;20221;-79
2022/09/13 09:47:45;;;;;;;7.65;4.32;;;;;;;23.73;34.78;99895.59;10132201;29;20256;-82
2022/09/13 09:53:27;;;;;;;6.65;3.70;;;;;;;24.41;34.38;99889.44;10110113;29;20250;-80
2022/09/13 09:58:51;;;;;;;5.63;4.10;;;;;;;23.15;37.12;99895.69;10146609;29;20201;-81
2022/09/13 10:04:15;;;;;;;9.18;3.83;;;;;;;24.32;34.80;99887.16;10145221;29;20265;-81
2022/09/13 10:09:38;;;;;;;5.57;4.10;;;;;;;24.38;34.43;99888.25;10146001;29;20197;-80
2022/09/13 10:15:19;;;;;;;4.05;3.28;;;;;;;24.81;34.97;99887.41;10173664;29;20256;-81
2022/09/13 10:20:41;;;;;;;4.53;3.67;;;;;;;24.64;34.41;99895.97;10156321;29;20301;-81
2022/09/13 10:26:04;;;;;;;12.63;3.65;;;;;;;24.69;34.21;99882.28;10143796;29;20657;-81
2022/09/13 10:31:29;;;;;;;4.95;3.55;;;;;;;24.55;34.19;99887.09;10174676;29;20216;-80
2022/09/13 10:37:01;;;;;;;7.57;4.03;;;;;;;24.99;34.62;99888.63;10175268;29;20451;-82
2022/09/13 10:42:25;;;;;;;4.93;3.35;;;;;;;24.71;34.92;99888.44;10173659;29;20275;-80
2022/09/13 10:47:49;;;;;;;6.82;3.08;;;;;;;24.70;33.86;99886.81;10153329;29;20196;-80
2022/09/13 10:53:31;;;;;;;4.07;2.70;;;;;;;24.45;34.57;99878.69;10140955;29;20245;-80
2022/09/13 10:59:22;;;;;;;6.25;3.03;;;;;;;25.51;33.79;99861.88;10133969;29;20666;-82
2022/09/13 11:05:12;;;;;;;6.57;2.90;;;;;;;25.20;34.52;99870.03;10130055;29;20283;-81
2022/09/13 11:10:53;;;;;;;3.90;2.70;;;;;;;25.47;33.78;99851.72;10147341;29;20264;-80
2022/09/13 11:16:30;;;;;;;9.52;3.22;;;;;;;24.52;35.37;99861.22;10125440;29;20642;-81
2022/09/13 11:22:20;;;;;;;4.35;2.85;;;;;;;25.23;34.64;99846.06;10135671;29;20273;-80
2022/09/13 11:28:06;;;;;;;8.27;3.65;;;;;;;24.28;36.25;99855.53;10117742;29;20565;-81
2022/09/13 11:33:28;;;;;;;5.10;3.33;;;;;;;25.28;34.10;99854.22;10129206;29;20232;-81
2022/09/13 11:39:04;;;;;;;7.65;3.60;;;;;;;25.46;34.15;99842.25;10125830;29;20202;-80
2022/09/13 11:44:54;;;;;;;6.55;3.17;;;;;;;25.83;34.03;99838.00;10136254;29;20241;-82
2022/09/13 11:50:24;;;;;;;8.50;3.67;;;;;;;25.56;35.13;99834.56;10147830;29;20216;-80
2022/09/13 11:55:49;;;;;;;10.10;3.00;;;;;;;25.84;34.90;99824.38;10113196;29;20209;-81
2022/09/13 12:01:35;;;;;;;4.88;3.67;;;;;;;25.32;35.16;99823.22;10126837;29;20241;-81
2022/09/13 12:07:05;;;;;;;7.18;4.13;;;;;;;25.24;34.88;99813.09;10140147;29;20257;-81
2022/09/13 12:12:31;;;;;;;7.68;3.90;;;;;;;25.02;35.92;99823.50;10114745;29;20198;-82
2022/09/13 12:17:59;;;;;;;7.68;3.53;;;;;;;25.20;34.79;99812.34;10126134;29;20232;-81
2022/09/13 12:23:31;;;;;;;10.52;4.50;;;;;;;24.54;35.42;99804.78;10126467;29;20277;-81
2022/09/13 12:29:00;;;;;;;6.47;3.22;;;;;;;25.15;35.68;99807.13;10138872;29;20257;-81
2022/09/13 12:34:29;;;;;;;7.63;4.20;;;;;;;25.54;35.31;99802.47;10114038;29;20194;-81
2022/09/13 12:40:12;;;;;;;12.35;5.10;;;;;;;26.20;34.94;99795.31;10125840;29;20276;-81
2022/09/13 12:45:59;;;;;;;9.68;5.45;;;;;;;25.86;35.17;99796.69;10137037;29;20213;-80
2022/09/13 12:51:40;;;;;;;9.73;6.03;;;;;;;25.44;36.50;99800.66;10158729;29;20209;-81
2022/09/13 12:57:16;;;;;;;11.07;6.50;;;;;;;25.77;35.91;99790.72;10147576;29;20198;-84
2022/09/13 13:02:49;;;;;;;10.43;7.20;;;;;;;25.46;35.84;99798.16;10103984;29;20642;-81
2022/09/13 13:08:20;;;;;;;7.65;5.32;;;;;;;25.88;35.00;99791.28;10150313;29;20208;-80
2022/09/13 13:13:45;;;;;;;7.68;5.90;;;;;;;25.93;34.91;99790.69;10162471;29;20285;-81
2022/09/13 13:19:27;;;;;;;6.80;5.43;;;;;;;25.87;35.22;99792.53;10149961;29;20193;-82
2022/09/13 13:24:49;;;;;;;7.13;5.20;;;;;;;25.45;35.35;99793.63;10141132;29;20255;-80
2022/09/13 13:30:39;;;;;;;7.70;4.85;;;;;;;27.13;33.26;99781.75;10151617;29;20666;-81
2022/09/13 13:36:40;;;;;;;7.53;6.03;;;;;;;26.20;34.90;99781.69;10166497;29;20201;-81
2022/09/13 13:42:12;;;;;;;8.27;5.43;;;;;;;26.49;34.27;99781.69;10123201;29;20256;-81
2022/09/13 13:47:34;;;;;;;10.93;5.00;;;;;;;26.29;35.79;99784.75;10148501;29;20208;-82
2022/09/13 13:53:04;;;;;;;9.93;4.95;;;;;;;25.88;35.10;99782.63;10156851;29;20866;-81
2022/09/13 13:58:32;;;;;;;8.93;5.30;;;;;;;25.23;36.19;99782.63;10152759;29;20204;-84
2022/09/13 14:04:18;;;;;;;6.45;5.38;;;;;;;26.50;34.54;99771.75;10125881;29;20249;-82
2022/09/13 14:23:32;;;;;;;10.65;7.45;;;;;;;26.78;35.48;99760.59;10117814;28;20248;-80
2022/09/13 14:28:54;;;;;;;8.63;6.75;;;;;;;26.33;35.64;99756.56;10145993;29;20240;-80
2022/09/13 14:34:27;;;;;;;9.63;7.53;;;;;;;25.61;37.26;99756.94;10110706;29;20237;-80
2022/09/13 14:39:56;;;;;;;8.65;6.25;;;;;;;26.26;36.14;99761.72;10113808;29;20232;-80
2022/09/13 14:45:26;;;;;;;7.07;6.28;;;;;;;25.43;37.87;99756.56;10124749;29;20245;-85
2022/09/13 14:51:01;;;;;;;6.63;5.78;;;;;;;25.75;36.28;99755.72;10111111;29;20268;-80
2022/09/13 14:56:42;;;;;;;7.68;5.50;;;;;;;26.23;36.70;99762.63;10111776;29;20286;-81
2022/09/13 15:02:06;;;;;;;7.57;6.07;;;;;;;25.56;37.78;99759.53;10124272;29;20622;-80
2022/09/13 15:07:31;;;;;;;8.77;6.57;;;;;;;25.35;37.93;99755.97;10123411;29;20277;-80
2022/09/13 15:13:07;;;;;;;7.75;5.20;;;;;;;25.82;37.65;99743.19;10121570;29;20229;-81
2022/09/13 15:18:31;;;;;;;8.60;5.93;;;;;;;26.13;37.13;99752.22;10160466;29;20232;-85
2022/09/13 15:23:53;;;;;;;8.88;5.82;;;;;;;25.89;37.68;99746.66;10153401;29;20260;-81
2022/09/13 15:29:17;;;;;;;8.75;6.30;;;;;;;26.16;36.97;99748.38;10144020;29;20283;-79
2022/09/13 15:34:45;;;;;;;6.72;5.10;;;;;;;26.30;36.89;99743.03;10126548;29;20541;-82
2022/09/13 15:40:13;;;;;;;8.15;5.93;;;;;;;25.85;37.65;99736.50;10119682;29;20272;-88
2022/09/13 15:45:35;;;;;;;9.30;7.32;;;;;;;24.66;38.89;99740.72;10133624;29;20293;-79
2022/09/13 15:51:11;;;;;;;7.95;5.78;;;;;;;25.21;38.69;99741.06;10136456;29;20229;-88
2022/09/13 15:56:34;;;;;;;9.43;5.80;;;;;;;25.10;38.55;99743.41;10113339;29;20253;-79
2022/09/13 16:01:56;;;;;;;7.47;6.43;;;;;;;25.18;38.55;99739.88;10126776;29;20248;-79
2022/09/13 16:07:18;;;;;;;8.27;5.28;;;;;;;25.45;38.01;99747.47;10123250;29;20264;-84
2022/09/13 16:12:41;;;;;;;5.82;5.10;;;;;;;25.68;38.44;99744.38;10131915;29;20265;-80
2022/09/13 16:18:03;;;;;;;7.40;5.45;;;;;;;26.10;37.48;99748.16;10131396;29;20229;-85
2022/09/13 16:23:25;;;;;;;6.25;5.50;;;;;;;25.41;39.03;99743.88;10133864;29;20256;-84
2022/09/13 16:28:47;;;;;;;8.52;6.20;;;;;;;25.53;38.83;99740.25;10135454;29;20232;-81
2022/09/13 16:34:09;;;;;;;7.72;5.25;;;;;;;25.90;38.28;99745.41;10159640;29;20603;-88
2022/09/13 16:39:33;;;;;;;10.70;5.28;;;;;;;25.42;39.28;99754.94;10154993;29;20228;-81
2022/09/13 16:44:55;;;;;;;8.63;5.30;;;;;;;25.57;39.17;99749.63;10138916;29;20263;-82
2022/09/13 16:50:18;;;;;;;12.23;6.18;;;;;;;25.20;39.95;99753.84;10160448;29;20279;-84
2022/09/13 16:55:40;;;;;;;9.35;6.10;;;;;;;25.14;39.56;99750.69;10151855;29;20244;-82
2022/09/13 17:01:07;;;;;;;9.43;5.45;;;;;;;24.73;40.86;99753.34;10162556;29;20283;-82
2022/09/13 17:06:29;;;;;;;5.95;4.30;;;;;;;25.59;38.98;99765.22;10145653;29;20280;-88
2022/09/13 17:11:52;;;;;;;5.50;4.70;;;;;;;25.26;39.61;99770.19;10161718;29;20220;-79
2022/09/13 17:17:15;;;;;;;7.72;5.25;;;;;;;25.13;40.20;99772.13;10138016;29;20700;-78
2022/09/13 17:22:38;;;;;;;5.82;4.85;;;;;;;25.39;39.15;99766.59;10161894;29;20280;-79
2022/09/13 17:28:01;;;;;;;7.47;5.63;;;;;;;25.03;40.16;99767.44;10165967;29;20499;-83
2022/09/13 17:33:24;;;;;;;5.82;5.15;;;;;;;25.31;39.83;99766.78;10156074;29;20260;-80
2022/09/13 17:38:53;;;;;;;7.07;4.95;;;;;;;25.38;39.25;99770.72;10150464;29;20563;-80
2022/09/13 17:44:16;;;;;;;6.68;5.38;;;;;;;24.89;40.39;99767.78;10131353;29;20259;-86
2022/09/13 17:49:38;;;;;;;5.95;5.35;;;;;;;24.28;41.34;99762.56;10145547;29;20224;-86
2022/09/13 17:55:01;;;;;;;5.82;4.95;;;;;;;25.59;38.80;99770.19;10153238;29;20205;-82
2022/09/13 18:00:23;;;;;;;6.90;5.43;;;;;;;25.43;39.43;99764.41;10157673;29;20308;-79
2022/09/13 18:05:45;;;;;;;6.90;4.47;;;;;;;25.26;39.67;99760.72;10135896;29;20248;-79
2022/09/13 18:11:12;;;;;;;5.75;4.93;;;;;;;25.22;39.65;99769.47;10152130;29;20232;-81
2022/09/13 18:16:35;;;;;;;6.45;5.00;;;;;;;25.38;39.51;99768.66;10137469;29;20248;-80
2022/09/13 18:22:00;;;;;;;5.88;4.50;;;;;;;25.49;38.85;99766.31;10137650;29;20264;-84
2022/09/13 18:27:22;;;;;;;6.65;3.92;;;;;;;25.55;39.57;99760.81;10128389;29;20546;-80
2022/09/13 18:32:44;;;;;;;16.63;12.40;;;;;;;25.20;40.33;99766.22;10124695;29;20838;-79
2022/09/13 18:38:06;;;;;;;7.70;4.57;;;;;;;25.08;40.13;99764.03;10138946;29;20239;-79
2022/09/13 18:43:28;;;;;;;5.55;3.85;;;;;;;24.80;40.60;99770.50;10124814;29;20248;-79
2022/09/13 18:48:53;;;;;;;6.45;3.60;;;;;;;24.90;40.84;99763.66;10159726;29;20593;-80
2022/09/13 18:54:16;;;;;;;6.20;3.75;;;;;;;24.91;40.51;99765.28;10118204;29;20314;-79
2022/09/13 18:59:38;;;;;;;3.42;2.90;;;;;;;25.17;40.23;99770.00;10129055;29;20742;-79
2022/09/13 19:05:00;;;;;;;5.20;2.63;;;;;;;24.83;40.69;99775.38;10137055;29;20638;-79
2022/09/13 19:10:22;;;;;;;4.35;2.97;;;;;;;24.45;42.47;99778.66;10117419;29;20284;-80
2022/09/13 19:15:45;;;;;;;5.50;3.00;;;;;;;24.55;42.37;99783.38;10129680;29;20235;-80
2022/09/13 19:21:18;;;;;;;3.72;2.75;;;;;;;24.62;41.66;99777.44;10158653;29;20224;-80
2022/09/13 19:26:41;;;;;;;5.72;2.53;;;;;;;24.57;41.85;99771.41;10154659;29;20295;-80
2022/09/13 19:32:03;;;;;;;4.13;3.08;;;;;;;25.01;41.25;99770.78;10133499;29;20241;-80
2022/09/13 19:37:26;;;;;;;5.32;2.47;;;;;;;24.84;41.22;99765.47;10147026;29;20593;-80
2022/09/13 19:42:48;;;;;;;4.60;2.90;;;;;;;24.72;42.12;99763.28;10150960;29;20248;-84
2022/09/13 19:48:10;;;;;;;6.63;2.97;;;;;;;24.00;42.56;99778.31;10130784;29;20283;-80
2022/09/13 19:53:33;;;;;;;3.33;2.30;;;;;;;24.49;40.98;99773.63;10140471;29;20636;-85
2022/09/13 19:58:56;;;;;;;3.72;1.85;;;;;;;23.61;41.40;99779.84;10118674;29;20236;-81
2022/09/13 20:04:19;;;;;;;6.30;1.40;;;;;;;23.72;38.45;99782.56;10155182;29;20632;-85
2022/09/13 20:09:45;;;;;;;2.15;0.98;;;;;;;23.46;37.94;99774.78;10135211;29;20225;-82
2022/09/13 20:15:08;;;;;;;1.90;1.40;;;;;;;23.51;37.28;99788.69;10142789;29;20260;-80
2022/09/13 20:20:33;;;;;;;2.40;0.68;;;;;;;23.80;35.43;99784.06;10137059;29;20236;-80
2022/09/13 20:25:55;;;;;;;1.65;0.50;;;;;;;23.55;35.43;99772.97;10143422;29;20293;-80
2022/09/13 20:31:18;;;;;;;7.00;0.60;;;;;;;23.20;35.43;99773.59;10143456;29;20232;-83
2022/09/13 20:36:43;;;;;;;1.05;0.30;;;;;;;23.33;34.35;99765.16;10139814;29;20221;-81
2022/09/13 20:42:06;;;;;;;7.28;0.88;;;;;;;23.21;34.27;99776.03;10143490;29;20287;-84
2022/09/13 20:47:28;;;;;;;4.45;0.60;;;;;;;22.94;34.30;99766.59;10141364;29;20224;-85
2022/09/13 20:52:50;;;;;;;4.15;0.63;;;;;;;22.49;35.24;99757.41;10134899;29;20642;-84
2022/09/13 20:58:12;;;;;;;4.68;0.50;;;;;;;22.30;35.33;99750.25;10129486;29;20237;-83
2022/09/13 21:03:36;;;;;;;6.07;0.75;;;;;;;22.75;34.78;99758.69;10131020;29;20236;-80
2022/09/13 21:08:58;;;;;;;5.32;0.80;;;;;;;22.95;34.50;99755.91;10142649;29;20256;-81
2022/09/13 21:14:20;;;;;;;2.25;0.60;;;;;;;22.55;34.59;99762.25;10153981;29;20307;-81
2022/09/13 21:19:42;;;;;;;2.42;0.30;;;;;;;22.53;34.42;99761.88;10158164;29;20224;-80
2022/09/13 21:25:05;;;;;;;3.60;0.63;;;;;;;22.05;34.86;99769.88;10165069;29;20259;-81
2022/09/13 21:30:27;;;;;;;5.13;1.00;;;;;;;22.47;34.19;99769.31;10145166;29;20231;-80
2022/09/13 21:35:51;;;;;;;6.60;0.88;;;;;;;21.84;35.47;99780.31;10132700;29;20671;-80
2022/09/13 21:41:15;;;;;;;3.60;0.73;;;;;;;22.05;35.27;99772.72;10134559;29;20230;-80
2022/09/13 21:46:38;;;;;;;3.50;1.02;;;;;;;22.38;34.17;99766.13;10144373;29;20307;-80
2022/09/13 21:52:00;;;;;;;3.50;0.73;;;;;;;22.10;34.90;99770.22;10165505;29;20574;-84
2022/09/13 21:57:22;;;;;;;3.78;0.95;;;;;;;22.51;34.66;99766.41;10152635;29;20279;-83
2022/09/13 22:02:44;;;;;;;1.65;0.50;;;;;;;22.73;34.21;99778.44;10160225;29;20224;-80
2022/09/13 22:08:06;;;;;;;1.63;0.40;;;;;;;21.10;36.36;99776.06;10146797;29;20225;-80
2022/09/13 22:13:31;;;;;;;2.83;0.47;;;;;;;20.73;36.72;99773.03;10132448;29;20257;-80
2022/09/13 22:19:01;;;;;;;1.60;0.30;;;;;;;21.66;35.06;99768.22;10129079;29;20225;-80
2022/09/13 22:24:25;;;;;;;3.70;0.60;;;;;;;21.17;36.23;99774.38;10126791;29;20285;-81
2022/09/13 22:29:47;;;;;;;2.83;0.40;;;;;;;21.17;36.25;99780.13;10128560;29;20228;-80
2022/09/13 22:35:10;;;;;;;4.30;0.43;;;;;;;21.54;35.42;99765.06;10113024;29;20201;-81
2022/09/13 22:40:32;;;;;;;3.80;0.50;;;;;;;21.68;35.41;99753.44;10112784;29;20236;-80
2022/09/13 22:46:04;;;;;;;4.93;0.63;;;;;;;21.46;35.88;99758.59;10129760;29;20252;-85
2022/09/13 22:51:27;;;;;;;4.43;0.75;;;;;;;21.62;35.55;99764.56;10117212;29;20257;-81
2022/09/13 22:56:49;;;;;;;5.18;0.75;;;;;;;21.50;35.98;99756.50;10121965;29;20292;-81
2022/09/13 23:02:11;;;;;;;4.35;0.65;;;;;;;21.30;36.44;99761.16;10111091;29;20292;-80
2022/09/13 23:07:33;;;;;;;6.60;0.70;;;;;;;21.23;37.06;99758.34;10075827;29;20793;-80
2022/09/13 23:12:56;;;;;;;2.92;0.30;;;;;;;21.26;36.61;99746.03;10129172;29;20201;-80
2022/09/13 23:18:18;;;;;;;4.05;0.52;;;;;;;21.46;36.16;99735.66;10129069;29;20225;-81
2022/09/13 23:23:40;;;;;;;2.35;0.57;;;;;;;21.72;35.64;99743.59;10125763;29;20726;-79
2022/09/13 23:29:03;;;;;;;4.38;0.52;;;;;;;21.31;36.71;99739.88;10134809;29;20691;-80
2022/09/13 23:34:25;;;;;;;7.13;0.70;;;;;;;21.75;36.59;99724.69;10130421;29;20221;-85
2022/09/13 23:39:47;;;;;;;3.25;0.57;;;;;;;21.56;37.12;99740.47;10123160;29;20224;-82
2022/09/13 23:45:10;;;;;;;3.50;0.50;;;;;;;21.63;37.26;99740.38;10120751;29;20248;-81
2022/09/13 23:50:32;;;;;;;4.78;0.70;;;;;;;21.65;37.84;99717.81;10135926;29;20194;-83
2022/09/13 23:55:55;;;;;;;4.55;0.75;;;;;;;20.96;39.38;99730.31;10136651;29;20205;-80
